Overseas Luzon — V7NE5 — position and weather

sailwx.info

Track history (hours):
 
Tides and Currents Weather Stations Pressure Air Temp Water Temp Dewpoint Dewpoint Depression Visibility Wind Speed Wind Dir Waves Ship Positions

Overseas Luzon

Last reported at 2016-May-24 14:13 UTC. Time now 2016-May-28 07:56 UTC.
Position N 37°34' W 123°05'.

Length 228 m; draft 8.1 m.

Type: Tanker. MMSI: 538002946.

Date/timePositionNaut miles runAvg speedWind from/ knotsBaromVisibWave heightAir tempDewpointWater temp
2016-May-24 14:13N 37°34' W 123°05'913.8
2016-May-24 13:34N 37°38' W 122°55'1413.6
2016-May-24 12:33N 37°46' W 122°41'1413.9
2016-May-24 11:33N 37°49' W 122°24'3 3.1
2016-May-24 10:33N 37°46' W 122°21'0 0.2
2016-May-24 09:33N 37°46' W 122°21'0 0.1
2016-May-24 08:33N 37°46' W 122°21'0 0.0
2016-May-24 07:33N 37°46' W 122°21'0 0.0
2016-May-24 06:30N 37°46' W 122°21'0 0.0
2016-May-24 05:33N 37°46' W 122°21'0 0.0
2016-May-24 04:33N 37°46' W 122°21'0 0.1
2016-May-24 03:33N 37°46' W 122°21'0 0.1
2016-May-24 02:33N 37°46' W 122°21'0 0.1
2016-May-24 01:33N 37°46' W 122°21'0 0.0
2016-May-24 00:33N 37°46' W 122°21'0 0.2
2016-May-23 23:33N 37°46' W 122°21'1110.9
2016-May-23 22:33N 37°56' W 122°27'1212.0
2016-May-23 21:33N 38°04' W 122°15'6 0.2
2016-May-22 07:12N 38°02' W 122°07'5 5.2
2016-May-22 06:14N 38°04' W 122°13'7 9.7
2016-May-22 05:33N 38°02' W 122°22'1111.1
2016-May-22 04:33N 37°51' W 122°25'8 8.1
2016-May-22 03:33N 37°44' W 122°20'0 0.1
2016-May-22 02:32N 37°44' W 122°20'0 0.2
2016-May-22 01:32N 37°44' W 122°20'0 0.0
2016-May-22 00:32N 37°44' W 122°20'0 0.0
2016-May-21 23:32N 37°44' W 122°20'0 0.0
2016-May-21 22:32N 37°44' W 122°20'0 0.1
2016-May-21 21:32N 37°44' W 122°20'0 0.2
2016-May-21 20:32N 37°44' W 122°20'0 0.1
2016-May-21 19:32N 37°44' W 122°20'0 0.0
2016-May-21 18:32N 37°44' W 122°20'0 0.0
2016-May-21 17:32N 37°44' W 122°20'0 0.0
2016-May-21 16:32N 37°44' W 122°20'0 0.2
2016-May-21 15:32N 37°44' W 122°21'0 0.1
2016-May-21 14:32N 37°44' W 122°20'0 0.0
2016-May-21 13:32N 37°44' W 122°20'0 0.0
2016-May-21 12:32N 37°44' W 122°20'0 0.0
2016-May-21 11:32N 37°44' W 122°20'0 0.0
2016-May-21 10:32N 37°44' W 122°20'0 0.0
2016-May-21 09:32N 37°44' W 122°20'0 0.0
2016-May-21 08:32N 37°44' W 122°20'0 0.2
2016-May-21 07:32N 37°44' W 122°20'0 0.1
2016-May-21 06:32N 37°44' W 122°20'0 0.0
2016-May-21 05:32N 37°44' W 122°20'0 0.0
2016-May-21 04:23N 37°44' W 122°20'0 0.0
2016-May-21 03:32N 37°44' W 122°20'0 0.1
2016-May-21 02:32N 37°44' W 122°20'0 0.1
2016-May-21 01:32N 37°44' W 122°20'0 0.1
2016-May-21 00:32N 37°44' W 122°20'0 0.1
2016-May-20 23:32N 37°44' W 122°20'0 0.0
2016-May-20 22:32N 37°44' W 122°20'0 0.1
2016-May-20 21:32N 37°44' W 122°20'0 0.1
2016-May-20 20:32N 37°44' W 122°20'0 0.1
2016-May-20 19:32N 37°44' W 122°20'0 0.1
2016-May-20 18:32N 37°44' W 122°20'0 0.0
2016-May-20 17:32N 37°44' W 122°20'0 0.0
2016-May-20 16:32N 37°44' W 122°20'0 0.0
2016-May-20 15:29N 37°44' W 122°20'0 0.1
2016-May-20 14:32N 37°44' W 122°20'0 0.2
2016-May-20 13:32N 37°44' W 122°20'0 0.1
2016-May-20 12:32N 37°44' W 122°20'0 0.0
2016-May-20 11:32N 37°44' W 122°20'0 0.0
2016-May-20 10:32N 37°44' W 122°20'0 0.0
2016-May-20 09:32N 37°44' W 122°20'0 0.1
2016-May-20 08:32N 37°44' W 122°20'0 0.2
2016-May-20 07:32N 37°44' W 122°20'0 0.1
2016-May-20 06:32N 37°44' W 122°20'0 0.1
2016-May-20 05:32N 37°44' W 122°20'0 0.0
2016-May-20 04:32N 37°44' W 122°20'0 0.0
2016-May-20 03:32N 37°44' W 122°20'0 0.0
2016-May-20 02:32N 37°44' W 122°20'0 0.1
2016-May-20 01:32N 37°44' W 122°20'0 0.1
2016-May-20 00:32N 37°44' W 122°20'0 0.2
2016-May-19 23:32N 37°44' W 122°20'0 0.0
2016-May-19 22:32N 37°44' W 122°20'0 0.0
2016-May-19 21:32N 37°44' W 122°20'0 0.2
2016-May-19 20:32N 37°44' W 122°20'0 0.2
2016-May-19 19:32N 37°44' W 122°20'0 0.0
2016-May-19 18:32N 37°44' W 122°20'0 0.0
2016-May-19 17:32N 37°44' W 122°20'0 0.0
2016-May-19 16:32N 37°44' W 122°20'0 0.0
2016-May-19 15:32N 37°44' W 122°20'0 0.0
2016-May-19 14:32N 37°44' W 122°20'0 0.2
2016-May-19 13:32N 37°44' W 122°20'0 0.2
2016-May-19 12:32N 37°44' W 122°20'0 0.0
2016-May-19 11:32N 37°44' W 122°20'0 0.0
2016-May-19 10:32N 37°44' W 122°20'0 0.0
2016-May-19 09:32N 37°44' W 122°20'0 0.0
2016-May-19 08:32N 37°44' W 122°20'0 0.1
2016-May-19 07:32N 37°44' W 122°20'0 0.1
2016-May-19 06:32N 37°44' W 122°20'0 0.1
2016-May-19 05:32N 37°44' W 122°20'0 0.0
2016-May-19 04:32N 37°44' W 122°20'0 0.0
2016-May-19 03:32N 37°44' W 122°20'0 0.0
2016-May-19 02:32N 37°44' W 122°20'0 0.0
2016-May-19 01:32N 37°44' W 122°20'0 0.1
2016-May-19 00:32N 37°44' W 122°20'0 0.2
2016-May-18 23:32N 37°44' W 122°20'0 0.0
2016-May-18 22:32N 37°44' W 122°20'0 0.0
2016-May-18 21:32N 37°44' W 122°20'0 0.0
2016-May-18 20:32N 37°44' W 122°20'0 0.1
2016-May-18 19:32N 37°44' W 122°20'0 0.1
2016-May-18 18:32N 37°44' W 122°20'0 0.0
2016-May-18 17:32N 37°44' W 122°20'0 0.0
2016-May-18 16:32N 37°44' W 122°20'0 0.0
2016-May-18 15:32N 37°44' W 122°20'0 0.0
2016-May-18 14:29N 37°44' W 122°20'0 0.0
2016-May-18 13:32N 37°44' W 122°20'0 0.2
2016-May-18 12:32N 37°44' W 122°20'0 0.1
2016-May-18 11:32N 37°44' W 122°20'0 0.0
2016-May-18 10:32N 37°44' W 122°20'0 0.0
2016-May-18 09:32N 37°44' W 122°20'0 0.0
2016-May-18 08:32N 37°44' W 122°20'0 0.0
2016-May-18 07:32N 37°44' W 122°20'0 0.2
2016-May-18 06:32N 37°44' W 122°20'0 0.1
2016-May-18 05:32N 37°44' W 122°20'0 0.0
2016-May-18 04:32N 37°44' W 122°20'0 0.0
2016-May-18 03:32N 37°44' W 122°20'0 0.0
2016-May-18 02:29N 37°44' W 122°20'0 0.1
2016-May-18 01:32N 37°44' W 122°20'0 0.1
2016-May-18 00:32N 37°44' W 122°20'0 0.1
2016-May-17 23:32N 37°44' W 122°20'0 0.2
2016-May-17 22:32N 37°44' W 122°20'0 0.0
2016-May-17 21:32N 37°44' W 122°20'0 0.0
2016-May-17 20:32N 37°44' W 122°20'0 0.0
2016-May-17 19:32N 37°44' W 122°20'0 0.1
2016-May-17 18:32N 37°44' W 122°21'0 0.2
2016-May-17 17:32N 37°44' W 122°20'0 0.0
2016-May-17 16:32N 37°44' W 122°20'0 0.0
2016-May-17 15:32N 37°44' W 122°20'0 0.0
2016-May-17 14:32N 37°44' W 122°20'0 0.0
2016-May-17 13:32N 37°44' W 122°20'0 0.2
2016-May-17 12:32N 37°44' W 122°20'0 0.0
2016-May-17 11:32N 37°44' W 122°20'0 0.0
2016-May-17 10:32N 37°44' W 122°20'0 0.0
2016-May-17 09:32N 37°44' W 122°20'0 0.0
2016-May-17 08:32N 37°44' W 122°20'0 0.0
2016-May-17 07:32N 37°44' W 122°20'0 0.0
2016-May-17 06:32N 37°44' W 122°20'0 0.2
2016-May-17 05:29N 37°44' W 122°20'0 0.0
2016-May-17 04:28N 37°44' W 122°20'0 0.0
2016-May-17 03:32N 37°44' W 122°20'0 0.0
2016-May-17 02:29N 37°44' W 122°20'0 0.0
2016-May-17 01:32N 37°44' W 122°20'0 0.0
2016-May-17 00:31N 37°44' W 122°20'0 0.1
2016-May-16 23:31N 37°44' W 122°20'0 0.2
2016-May-16 22:31N 37°44' W 122°20'0 0.1
2016-May-16 21:32N 37°44' W 122°20'0 0.0
2016-May-16 20:31N 37°44' W 122°20'0 0.0
2016-May-16 19:19N 37°44' W 122°20'0 0.1
2016-May-16 18:28N 37°44' W 122°20'0 0.1
2016-May-16 17:31N 37°44' W 122°21'0 0.2
2016-May-16 16:31N 37°44' W 122°20'0 0.1
2016-May-16 15:31N 37°44' W 122°20'0 0.0
2016-May-16 14:31N 37°44' W 122°20'0 0.0
2016-May-16 13:31N 37°44' W 122°20'0 0.0
2016-May-16 12:31N 37°44' W 122°20'0 0.2
2016-May-16 11:31N 37°44' W 122°20'0 0.0
2016-May-16 10:31N 37°44' W 122°20'0 0.0
2016-May-16 09:31N 37°44' W 122°20'0 0.0
2016-May-16 08:31N 37°44' W 122°20'0 0.0
2016-May-16 07:28N 37°44' W 122°20'0 0.0
2016-May-16 06:28N 37°44' W 122°20'0 0.2
2016-May-16 05:31N 37°44' W 122°20'0 0.2
2016-May-16 04:31N 37°44' W 122°20'0 0.0
2016-May-16 03:31N 37°44' W 122°20'0 0.0
2016-May-16 02:31N 37°44' W 122°20'0 0.0
2016-May-16 01:31N 37°44' W 122°20'0 0.0
2016-May-16 00:31N 37°44' W 122°20'0 0.0
2016-May-15 23:31N 37°44' W 122°20'0 0.1
2016-May-15 22:31N 37°44' W 122°20'0 0.2
2016-May-15 21:31N 37°44' W 122°20'0 0.0
2016-May-15 20:31N 37°44' W 122°20'0 0.0
2016-May-15 19:31N 37°44' W 122°20'0 0.0
2016-May-15 18:31N 37°44' W 122°20'0 0.0
2016-May-15 17:31N 37°44' W 122°20'0 0.2
2016-May-15 16:31N 37°44' W 122°21'0 0.2
2016-May-15 15:31N 37°44' W 122°20'0 0.0
2016-May-15 14:31N 37°44' W 122°20'0 0.0
2016-May-15 13:31N 37°44' W 122°20'0 0.0
2016-May-15 12:31N 37°44' W 122°20'0 0.0
2016-May-15 11:31N 37°44' W 122°20'0 0.1
2016-May-15 10:31N 37°44' W 122°20'0 0.2
2016-May-15 09:31N 37°44' W 122°20'0 0.0
2016-May-15 08:31N 37°44' W 122°20'0 0.0
2016-May-15 07:28N 37°44' W 122°20'0 0.0
2016-May-15 06:31N 37°44' W 122°20'0 0.0
2016-May-15 05:31N 37°44' W 122°20'0 0.2
2016-May-15 04:31N 37°44' W 122°20'0 0.1
2016-May-15 03:31N 37°44' W 122°20'0 0.0
2016-May-15 02:28N 37°44' W 122°20'0 0.0
2016-May-15 01:31N 37°44' W 122°20'0 0.0
2016-May-15 00:31N 37°44' W 122°20'0 0.0
2016-May-14 23:31N 37°44' W 122°20'0 0.1
2016-May-14 22:31N 37°44' W 122°20'0 0.2
2016-May-14 21:31N 37°44' W 122°20'0 0.1
2016-May-14 20:28N 37°44' W 122°20'0 0.0
2016-May-14 19:28N 37°44' W 122°20'0 0.0
2016-May-14 18:31N 37°44' W 122°20'0 0.0
2016-May-14 17:28N 37°44' W 122°20'0 0.1
2016-May-14 16:31N 37°44' W 122°20'0 0.1
2016-May-14 15:31N 37°44' W 122°21'0 0.2
2016-May-14 14:31N 37°44' W 122°20'  
Track history (hours):
 
Tides and Currents Weather Stations Pressure Air Temp Water Temp Dewpoint Dewpoint Depression Visibility Wind Speed Wind Dir Waves Ship Positions

Overseas Luzon

Last reported at 2016-May-24 14:13 UTC. Time now 2016-May-28 07:56 UTC.
Position N 37°34' W 123°05'.

Length 228 m; draft 8.1 m.

Type: Tanker. MMSI: 538002946.

Date/timePositionNaut miles runAvg speedWind from/ knotsBaromVisibWave heightAir tempDewpointWater temp
2016-May-24 14:13N 37°34' W 123°05'913.8
2016-May-24 13:34N 37°38' W 122°55'1413.6
2016-May-24 12:33N 37°46' W 122°41'1413.9
2016-May-24 11:33N 37°49' W 122°24'3 3.1
2016-May-24 10:33N 37°46' W 122°21'0 0.2
2016-May-24 09:33N 37°46' W 122°21'0 0.1
2016-May-24 08:33N 37°46' W 122°21'0 0.0
2016-May-24 07:33N 37°46' W 122°21'0 0.0
2016-May-24 06:30N 37°46' W 122°21'0 0.0
2016-May-24 05:33N 37°46' W 122°21'0 0.0
2016-May-24 04:33N 37°46' W 122°21'0 0.1
2016-May-24 03:33N 37°46' W 122°21'0 0.1
2016-May-24 02:33N 37°46' W 122°21'0 0.1
2016-May-24 01:33N 37°46' W 122°21'0 0.0
2016-May-24 00:33N 37°46' W 122°21'0 0.2
2016-May-23 23:33N 37°46' W 122°21'1110.9
2016-May-23 22:33N 37°56' W 122°27'1212.0
2016-May-23 21:33N 38°04' W 122°15'6 0.2
2016-May-22 07:12N 38°02' W 122°07'5 5.2
2016-May-22 06:14N 38°04' W 122°13'7 9.7
2016-May-22 05:33N 38°02' W 122°22'1111.1
2016-May-22 04:33N 37°51' W 122°25'8 8.1
2016-May-22 03:33N 37°44' W 122°20'0 0.1
2016-May-22 02:32N 37°44' W 122°20'0 0.2
2016-May-22 01:32N 37°44' W 122°20'0 0.0
2016-May-22 00:32N 37°44' W 122°20'0 0.0
2016-May-21 23:32N 37°44' W 122°20'0 0.0
2016-May-21 22:32N 37°44' W 122°20'0 0.1
2016-May-21 21:32N 37°44' W 122°20'0 0.2
2016-May-21 20:32N 37°44' W 122°20'0 0.1
2016-May-21 19:32N 37°44' W 122°20'0 0.0
2016-May-21 18:32N 37°44' W 122°20'0 0.0
2016-May-21 17:32N 37°44' W 122°20'0 0.0
2016-May-21 16:32N 37°44' W 122°20'0 0.2
2016-May-21 15:32N 37°44' W 122°21'0 0.1
2016-May-21 14:32N 37°44' W 122°20'0 0.0
2016-May-21 13:32N 37°44' W 122°20'0 0.0
2016-May-21 12:32N 37°44' W 122°20'0 0.0
2016-May-21 11:32N 37°44' W 122°20'0 0.0
2016-May-21 10:32N 37°44' W 122°20'0 0.0
2016-May-21 09:32N 37°44' W 122°20'0 0.0
2016-May-21 08:32N 37°44' W 122°20'0 0.2
2016-May-21 07:32N 37°44' W 122°20'0 0.1
2016-May-21 06:32N 37°44' W 122°20'0 0.0
2016-May-21 05:32N 37°44' W 122°20'0 0.0
2016-May-21 04:23N 37°44' W 122°20'0 0.0
2016-May-21 03:32N 37°44' W 122°20'0 0.1
2016-May-21 02:32N 37°44' W 122°20'0 0.1
2016-May-21 01:32N 37°44' W 122°20'0 0.1
2016-May-21 00:32N 37°44' W 122°20'0 0.1
2016-May-20 23:32N 37°44' W 122°20'0 0.0
2016-May-20 22:32N 37°44' W 122°20'0 0.1
2016-May-20 21:32N 37°44' W 122°20'0 0.1
2016-May-20 20:32N 37°44' W 122°20'0 0.1
2016-May-20 19:32N 37°44' W 122°20'0 0.1
2016-May-20 18:32N 37°44' W 122°20'0 0.0
2016-May-20 17:32N 37°44' W 122°20'0 0.0
2016-May-20 16:32N 37°44' W 122°20'0 0.0
2016-May-20 15:29N 37°44' W 122°20'0 0.1
2016-May-20 14:32N 37°44' W 122°20'0 0.2
2016-May-20 13:32N 37°44' W 122°20'0 0.1
2016-May-20 12:32N 37°44' W 122°20'0 0.0
2016-May-20 11:32N 37°44' W 122°20'0 0.0
2016-May-20 10:32N 37°44' W 122°20'0 0.0
2016-May-20 09:32N 37°44' W 122°20'0 0.1
2016-May-20 08:32N 37°44' W 122°20'0 0.2
2016-May-20 07:32N 37°44' W 122°20'0 0.1
2016-May-20 06:32N 37°44' W 122°20'0 0.1
2016-May-20 05:32N 37°44' W 122°20'0 0.0
2016-May-20 04:32N 37°44' W 122°20'0 0.0
2016-May-20 03:32N 37°44' W 122°20'0 0.0
2016-May-20 02:32N 37°44' W 122°20'0 0.1
2016-May-20 01:32N 37°44' W 122°20'0 0.1
2016-May-20 00:32N 37°44' W 122°20'0 0.2
2016-May-19 23:32N 37°44' W 122°20'0 0.0
2016-May-19 22:32N 37°44' W 122°20'0 0.0
2016-May-19 21:32N 37°44' W 122°20'0 0.2
2016-May-19 20:32N 37°44' W 122°20'0 0.2
2016-May-19 19:32N 37°44' W 122°20'0 0.0
2016-May-19 18:32N 37°44' W 122°20'0 0.0
2016-May-19 17:32N 37°44' W 122°20'0 0.0
2016-May-19 16:32N 37°44' W 122°20'0 0.0
2016-May-19 15:32N 37°44' W 122°20'0 0.0
2016-May-19 14:32N 37°44' W 122°20'0 0.2
2016-May-19 13:32N 37°44' W 122°20'0 0.2
2016-May-19 12:32N 37°44' W 122°20'0 0.0
2016-May-19 11:32N 37°44' W 122°20'0 0.0
2016-May-19 10:32N 37°44' W 122°20'0 0.0
2016-May-19 09:32N 37°44' W 122°20'0 0.0
2016-May-19 08:32N 37°44' W 122°20'0 0.1
2016-May-19 07:32N 37°44' W 122°20'0 0.1
2016-May-19 06:32N 37°44' W 122°20'0 0.1
2016-May-19 05:32N 37°44' W 122°20'0 0.0
2016-May-19 04:32N 37°44' W 122°20'0 0.0
2016-May-19 03:32N 37°44' W 122°20'0 0.0
2016-May-19 02:32N 37°44' W 122°20'0 0.0
2016-May-19 01:32N 37°44' W 122°20'0 0.1
2016-May-19 00:32N 37°44' W 122°20'0 0.2
2016-May-18 23:32N 37°44' W 122°20'0 0.0
2016-May-18 22:32N 37°44' W 122°20'0 0.0
2016-May-18 21:32N 37°44' W 122°20'0 0.0
2016-May-18 20:32N 37°44' W 122°20'0 0.1
2016-May-18 19:32N 37°44' W 122°20'0 0.1
2016-May-18 18:32N 37°44' W 122°20'0 0.0
2016-May-18 17:32N 37°44' W 122°20'0 0.0
2016-May-18 16:32N 37°44' W 122°20'0 0.0
2016-May-18 15:32N 37°44' W 122°20'0 0.0
2016-May-18 14:29N 37°44' W 122°20'0 0.0
2016-May-18 13:32N 37°44' W 122°20'0 0.2
2016-May-18 12:32N 37°44' W 122°20'0 0.1
2016-May-18 11:32N 37°44' W 122°20'0 0.0
2016-May-18 10:32N 37°44' W 122°20'0 0.0
2016-May-18 09:32N 37°44' W 122°20'0 0.0
2016-May-18 08:32N 37°44' W 122°20'0 0.0
2016-May-18 07:32N 37°44' W 122°20'0 0.2
2016-May-18 06:32N 37°44' W 122°20'0 0.1
2016-May-18 05:32N 37°44' W 122°20'0 0.0
2016-May-18 04:32N 37°44' W 122°20'0 0.0
2016-May-18 03:32N 37°44' W 122°20'0 0.0
2016-May-18 02:29N 37°44' W 122°20'0 0.1
2016-May-18 01:32N 37°44' W 122°20'0 0.1
2016-May-18 00:32N 37°44' W 122°20'0 0.1
2016-May-17 23:32N 37°44' W 122°20'0 0.2
2016-May-17 22:32N 37°44' W 122°20'0 0.0
2016-May-17 21:32N 37°44' W 122°20'0 0.0
2016-May-17 20:32N 37°44' W 122°20'0 0.0
2016-May-17 19:32N 37°44' W 122°20'0 0.1
2016-May-17 18:32N 37°44' W 122°21'0 0.2
2016-May-17 17:32N 37°44' W 122°20'0 0.0
2016-May-17 16:32N 37°44' W 122°20'0 0.0
2016-May-17 15:32N 37°44' W 122°20'0 0.0
2016-May-17 14:32N 37°44' W 122°20'0 0.0
2016-May-17 13:32N 37°44' W 122°20'0 0.2
2016-May-17 12:32N 37°44' W 122°20'0 0.0
2016-May-17 11:32N 37°44' W 122°20'0 0.0
2016-May-17 10:32N 37°44' W 122°20'0 0.0
2016-May-17 09:32N 37°44' W 122°20'0 0.0
2016-May-17 08:32N 37°44' W 122°20'0 0.0
2016-May-17 07:32N 37°44' W 122°20'0 0.0
2016-May-17 06:32N 37°44' W 122°20'0 0.2
2016-May-17 05:29N 37°44' W 122°20'0 0.0
2016-May-17 04:28N 37°44' W 122°20'0 0.0
2016-May-17 03:32N 37°44' W 122°20'0 0.0
2016-May-17 02:29N 37°44' W 122°20'0 0.0
2016-May-17 01:32N 37°44' W 122°20'0 0.0
2016-May-17 00:31N 37°44' W 122°20'0 0.1
2016-May-16 23:31N 37°44' W 122°20'0 0.2
2016-May-16 22:31N 37°44' W 122°20'0 0.1
2016-May-16 21:32N 37°44' W 122°20'0 0.0
2016-May-16 20:31N 37°44' W 122°20'0 0.0
2016-May-16 19:19N 37°44' W 122°20'0 0.1
2016-May-16 18:28N 37°44' W 122°20'0 0.1
2016-May-16 17:31N 37°44' W 122°21'0 0.2
2016-May-16 16:31N 37°44' W 122°20'0 0.1
2016-May-16 15:31N 37°44' W 122°20'0 0.0
2016-May-16 14:31N 37°44' W 122°20'0 0.0
2016-May-16 13:31N 37°44' W 122°20'0 0.0
2016-May-16 12:31N 37°44' W 122°20'0 0.2
2016-May-16 11:31N 37°44' W 122°20'0 0.0
2016-May-16 10:31N 37°44' W 122°20'0 0.0
2016-May-16 09:31N 37°44' W 122°20'0 0.0
2016-May-16 08:31N 37°44' W 122°20'0 0.0
2016-May-16 07:28N 37°44' W 122°20'0 0.0
2016-May-16 06:28N 37°44' W 122°20'0 0.2
2016-May-16 05:31N 37°44' W 122°20'0 0.2
2016-May-16 04:31N 37°44' W 122°20'0 0.0
2016-May-16 03:31N 37°44' W 122°20'0 0.0
2016-May-16 02:31N 37°44' W 122°20'0 0.0
2016-May-16 01:31N 37°44' W 122°20'0 0.0
2016-May-16 00:31N 37°44' W 122°20'0 0.0
2016-May-15 23:31N 37°44' W 122°20'0 0.1
2016-May-15 22:31N 37°44' W 122°20'0 0.2
2016-May-15 21:31N 37°44' W 122°20'0 0.0
2016-May-15 20:31N 37°44' W 122°20'0 0.0
2016-May-15 19:31N 37°44' W 122°20'0 0.0
2016-May-15 18:31N 37°44' W 122°20'0 0.0
2016-May-15 17:31N 37°44' W 122°20'0 0.2
2016-May-15 16:31N 37°44' W 122°21'0 0.2
2016-May-15 15:31N 37°44' W 122°20'0 0.0
2016-May-15 14:31N 37°44' W 122°20'0 0.0
2016-May-15 13:31N 37°44' W 122°20'0 0.0
2016-May-15 12:31N 37°44' W 122°20'0 0.0
2016-May-15 11:31N 37°44' W 122°20'0 0.1
2016-May-15 10:31N 37°44' W 122°20'0 0.2
2016-May-15 09:31N 37°44' W 122°20'0 0.0
2016-May-15 08:31N 37°44' W 122°20'0 0.0
2016-May-15 07:28N 37°44' W 122°20'0 0.0
2016-May-15 06:31N 37°44' W 122°20'0 0.0
2016-May-15 05:31N 37°44' W 122°20'0 0.2
2016-May-15 04:31N 37°44' W 122°20'0 0.1
2016-May-15 03:31N 37°44' W 122°20'0 0.0
2016-May-15 02:28N 37°44' W 122°20'0 0.0
2016-May-15 01:31N 37°44' W 122°20'0 0.0
2016-May-15 00:31N 37°44' W 122°20'0 0.0
2016-May-14 23:31N 37°44' W 122°20'0 0.1
2016-May-14 22:31N 37°44' W 122°20'0 0.2
2016-May-14 21:31N 37°44' W 122°20'0 0.1
2016-May-14 20:28N 37°44' W 122°20'0 0.0
2016-May-14 19:28N 37°44' W 122°20'0 0.0
2016-May-14 18:31N 37°44' W 122°20'0 0.0
2016-May-14 17:28N 37°44' W 122°20'0 0.1
2016-May-14 16:31N 37°44' W 122°20'0 0.1
2016-May-14 15:31N 37°44' W 122°21'0 0.2
2016-May-14 14:31N 37°44' W 122°20'  

Dump ship's entire track history